sensor_id;sensor_type;location;lat;lon;timestamp;pressure;altitude;pressure_sealevel;temperature;humidity
50933;BME280;36921;49.006;9.292;2023-02-24T00:02:02;98408.81;;;8.31;100.00
50933;BME280;36921;49.006;9.292;2023-02-24T00:04:34;98407.13;;;8.30;100.00
50933;BME280;36921;49.006;9.292;2023-02-24T00:07:00;98401.75;;;8.30;100.00
50933;BME280;36921;49.006;9.292;2023-02-24T00:09:28;98403.19;;;8.26;100.00
50933;BME280;36921;49.006;9.292;2023-02-24T00:12:02;98407.69;;;8.19;100.00
50933;BME280;36921;49.006;9.292;2023-02-24T00:14:34;98391.69;;;8.10;100.00
50933;BME280;36921;49.006;9.292;2023-02-24T00:16:59;98390.63;;;8.05;100.00
50933;BME280;36921;49.006;9.292;2023-02-24T00:19:27;98384.19;;;8.06;100.00
50933;BME280;36921;49.006;9.292;2023-02-24T00:21:53;98387.78;;;8.13;100.00
50933;BME280;36921;49.006;9.292;2023-02-24T00:24:22;98390.88;;;8.10;100.00
50933;BME280;36921;49.006;9.292;2023-02-24T00:26:52;98375.28;;;8.05;100.00
50933;BME280;36921;49.006;9.292;2023-02-24T00:29:18;98372.03;;;8.17;100.00
50933;BME280;36921;49.006;9.292;2023-02-24T00:31:44;98363.47;;;8.06;100.00
50933;BME280;36921;49.006;9.292;2023-02-24T00:34:11;98373.91;;;8.16;100.00
50933;BME280;36921;49.006;9.292;2023-02-24T00:36:37;98388.88;;;8.25;100.00
50933;BME280;36921;49.006;9.292;2023-02-24T00:39:05;98388.41;;;8.15;100.00
50933;BME280;36921;49.006;9.292;2023-02-24T00:41:43;98374.09;;;8.15;100.00
50933;BME280;36921;49.006;9.292;2023-02-24T00:44:12;98339.13;;;7.86;100.00
50933;BME280;36921;49.006;9.292;2023-02-24T00:46:40;98377.81;;;8.13;100.00
50933;BME280;36921;49.006;9.292;2023-02-24T00:49:09;98365.75;;;8.09;100.00
50933;BME280;36921;49.006;9.292;2023-02-24T00:51:38;98375.19;;;8.20;100.00
50933;BME280;36921;49.006;9.292;2023-02-24T00:54:04;98369.75;;;8.13;100.00
50933;BME280;36921;49.006;9.292;2023-02-24T00:56:30;98364.78;;;8.17;100.00
50933;BME280;36921;49.006;9.292;2023-02-24T00:58:56;98362.94;;;8.18;100.00
50933;BME280;36921;49.006;9.292;2023-02-24T01:01:26;98381.41;;;8.27;100.00
50933;BME280;36921;49.006;9.292;2023-02-24T01:03:53;98373.50;;;8.19;100.00
50933;BME280;36921;49.006;9.292;2023-02-24T01:06:23;98355.84;;;8.10;100.00
50933;BME280;36921;49.006;9.292;2023-02-24T01:08:51;98359.16;;;8.12;100.00
50933;BME280;36921;49.006;9.292;2023-02-24T01:11:25;98358.31;;;8.11;100.00
50933;BME280;36921;49.006;9.292;2023-02-24T01:14:12;98349.00;;;8.07;100.00
50933;BME280;36921;49.006;9.292;2023-02-24T01:16:39;98343.78;;;8.06;100.00
50933;BME280;36921;49.006;9.292;2023-02-24T01:19:15;98344.59;;;8.06;100.00
50933;BME280;36921;49.006;9.292;2023-02-24T01:21:41;98325.50;;;8.01;100.00
50933;BME280;36921;49.006;9.292;2023-02-24T01:24:06;98349.84;;;8.15;100.00
50933;BME280;36921;49.006;9.292;2023-02-24T01:26:32;98315.53;;;7.95;100.00
50933;BME280;36921;49.006;9.292;2023-02-24T01:28:57;98330.72;;;8.09;100.00
50933;BME280;36921;49.006;9.292;2023-02-24T01:31:23;98337.00;;;8.17;100.00
50933;BME280;36921;49.006;9.292;2023-02-24T01:33:49;98334.72;;;8.13;100.00
50933;BME280;36921;49.006;9.292;2023-02-24T01:36:18;98340.34;;;8.19;100.00
50933;BME280;36921;49.006;9.292;2023-02-24T01:38:44;98344.06;;;8.18;100.00
50933;BME280;36921;49.006;9.292;2023-02-24T01:41:12;98341.97;;;8.20;100.00
50933;BME280;36921;49.006;9.292;2023-02-24T01:44:03;98333.91;;;8.20;100.00
50933;BME280;36921;49.006;9.292;2023-02-24T01:46:37;98326.22;;;8.17;100.00
50933;BME280;36921;49.006;9.292;2023-02-24T01:51:36;98324.34;;;8.17;100.00
50933;BME280;36921;49.006;9.292;2023-02-24T01:54:02;98308.53;;;8.01;100.00
50933;BME280;36921;49.006;9.292;2023-02-24T01:56:31;98286.72;;;7.89;100.00
50933;BME280;36921;49.006;9.292;2023-02-24T01:58:57;98299.81;;;7.99;100.00
50933;BME280;36921;49.006;9.292;2023-02-24T02:01:23;98291.13;;;8.03;100.00
50933;BME280;36921;49.006;9.292;2023-02-24T02:03:48;98305.66;;;8.09;100.00
50933;BME280;36921;49.006;9.292;2023-02-24T02:06:14;98299.84;;;8.05;100.00
50933;BME280;36921;49.006;9.292;2023-02-24T02:08:42;98295.28;;;7.99;100.00
50933;BME280;36921;49.006;9.292;2023-02-24T02:11:11;98317.06;;;8.11;100.00
50933;BME280;36921;49.006;9.292;2023-02-24T02:13:42;98294.41;;;7.99;100.00
50933;BME280;36921;49.006;9.292;2023-02-24T02:16:22;98304.00;;;8.08;100.00
50933;BME280;36921;49.006;9.292;2023-02-24T02:24:27;98303.13;;;8.01;100.00
50933;BME280;36921;49.006;9.292;2023-02-24T02:38:18;98277.00;;;7.95;100.00
50933;BME280;36921;49.006;9.292;2023-02-24T02:41:10;98276.59;;;7.98;100.00
50933;BME280;36921;49.006;9.292;2023-02-24T02:43:41;98283.66;;;7.99;100.00
50933;BME280;36921;49.006;9.292;2023-02-24T02:46:35;98268.28;;;7.86;100.00
50933;BME280;36921;49.006;9.292;2023-02-24T02:49:14;98262.19;;;7.71;100.00
50933;BME280;36921;49.006;9.292;2023-02-24T02:51:47;98258.53;;;7.57;100.00
50933;BME280;36921;49.006;9.292;2023-02-24T02:57:06;98268.81;;;7.75;100.00
50933;BME280;36921;49.006;9.292;2023-02-24T02:59:36;98270.50;;;7.76;100.00
50933;BME280;36921;49.006;9.292;2023-02-24T03:02:03;98265.34;;;7.81;100.00
50933;BME280;36921;49.006;9.292;2023-02-24T03:04:59;98281.28;;;7.82;100.00
50933;BME280;36921;49.006;9.292;2023-02-24T03:07:29;98262.78;;;7.73;100.00
50933;BME280;36921;49.006;9.292;2023-02-24T03:10:02;98257.56;;;7.64;100.00
50933;BME280;36921;49.006;9.292;2023-02-24T03:12:34;98224.50;;;7.42;100.00
50933;BME280;36921;49.006;9.292;2023-02-24T03:15:05;98261.53;;;7.68;100.00
50933;BME280;36921;49.006;9.292;2023-02-24T03:17:38;98271.84;;;7.65;100.00
50933;BME280;36921;49.006;9.292;2023-02-24T03:23:14;98255.75;;;7.72;100.00
50933;BME280;36921;49.006;9.292;2023-02-24T03:25:51;98265.72;;;7.78;100.00
50933;BME280;36921;49.006;9.292;2023-02-24T03:28:21;98246.25;;;7.76;100.00
50933;BME280;36921;49.006;9.292;2023-02-24T03:31:07;98258.91;;;7.82;100.00
50933;BME280;36921;49.006;9.292;2023-02-24T03:33:40;98264.69;;;7.79;100.00
50933;BME280;36921;49.006;9.292;2023-02-24T03:36:09;98253.69;;;7.74;100.00
50933;BME280;36921;49.006;9.292;2023-02-24T03:38:39;98246.25;;;7.76;100.00
50933;BME280;36921;49.006;9.292;2023-02-24T03:41:07;98256.63;;;7.79;100.00
50933;BME280;36921;49.006;9.292;2023-02-24T03:43:40;98236.03;;;7.64;100.00
50933;BME280;36921;49.006;9.292;2023-02-24T03:46:09;98258.69;;;7.77;100.00
50933;BME280;36921;49.006;9.292;2023-02-24T03:48:38;98241.41;;;7.64;100.00
50933;BME280;36921;49.006;9.292;2023-02-24T03:51:12;98232.09;;;7.60;100.00
50933;BME280;36921;49.006;9.292;2023-02-24T03:56:28;98238.31;;;7.67;100.00
50933;BME280;36921;49.006;9.292;2023-02-24T03:59:07;98232.47;;;7.57;100.00
50933;BME280;36921;49.006;9.292;2023-02-24T04:01:50;98234.13;;;7.58;100.00
50933;BME280;36921;49.006;9.292;2023-02-24T04:04:31;98240.56;;;7.57;100.00
50933;BME280;36921;49.006;9.292;2023-02-24T04:10:02;98254.84;;;7.58;100.00
50933;BME280;36921;49.006;9.292;2023-02-24T04:15:09;98239.03;;;7.48;100.00
50933;BME280;36921;49.006;9.292;2023-02-24T04:17:48;98240.34;;;7.59;100.00
50933;BME280;36921;49.006;9.292;2023-02-24T04:20:18;98241.16;;;7.53;100.00
50933;BME280;36921;49.006;9.292;2023-02-24T04:22:56;98239.03;;;7.48;100.00
50933;BME280;36921;49.006;9.292;2023-02-24T04:25:25;98229.06;;;7.42;100.00
50933;BME280;36921;49.006;9.292;2023-02-24T04:27:58;98237.00;;;7.50;100.00
50933;BME280;36921;49.006;9.292;2023-02-24T04:30:28;98218.72;;;7.45;100.00
50933;BME280;36921;49.006;9.292;2023-02-24T04:32:54;98227.44;;;7.47;100.00
50933;BME280;36921;49.006;9.292;2023-02-24T04:35:20;98218.78;;;7.52;100.00
50933;BME280;36921;49.006;9.292;2023-02-24T04:37:47;98221.31;;;7.60;100.00
50933;BME280;36921;49.006;9.292;2023-02-24T04:40:16;98221.97;;;7.62;100.00
50933;BME280;36921;49.006;9.292;2023-02-24T04:42:42;98222.13;;;7.61;100.00
50933;BME280;36921;49.006;9.292;2023-02-24T04:45:30;98221.72;;;7.57;100.00
50933;BME280;36921;49.006;9.292;2023-02-24T04:47:58;98212.41;;;7.60;100.00
50933;BME280;36921;49.006;9.292;2023-02-24T04:50:29;98179.94;;;7.33;100.00
50933;BME280;36921;49.006;9.292;2023-02-24T04:52:57;98176.03;;;7.36;100.00
50933;BME280;36921;49.006;9.292;2023-02-24T04:55:25;98188.13;;;7.53;100.00
50933;BME280;36921;49.006;9.292;2023-02-24T04:57:54;98201.84;;;7.58;100.00
50933;BME280;36921;49.006;9.292;2023-02-24T05:00:20;98174.03;;;7.51;100.00
50933;BME280;36921;49.006;9.292;2023-02-24T05:02:51;98200.78;;;7.59;100.00
50933;BME280;36921;49.006;9.292;2023-02-24T05:05:18;98195.41;;;7.59;100.00
50933;BME280;36921;49.006;9.292;2023-02-24T05:08:00;98192.94;;;7.64;100.00
50933;BME280;36921;49.006;9.292;2023-02-24T05:10:33;98176.97;;;7.56;100.00
50933;BME280;36921;49.006;9.292;2023-02-24T05:13:00;98154.31;;;7.44;100.00
50933;BME280;36921;49.006;9.292;2023-02-24T05:15:27;98172.63;;;7.55;100.00
50933;BME280;36921;49.006;9.292;2023-02-24T05:17:57;98124.63;;;7.24;100.00
50933;BME280;36921;49.006;9.292;2023-02-24T05:20:24;98162.63;;;7.42;100.00
50933;BME280;36921;49.006;9.292;2023-02-24T05:23:08;98183.22;;;7.63;100.00
50933;BME280;36921;49.006;9.292;2023-02-24T05:26:03;98180.09;;;7.60;100.00
50933;BME280;36921;49.006;9.292;2023-02-24T05:28:34;98149.19;;;7.49;100.00
50933;BME280;36921;49.006;9.292;2023-02-24T05:31:17;98147.09;;;7.44;100.00
50933;BME280;36921;49.006;9.292;2023-02-24T05:33:46;98153.31;;;7.45;100.00
50933;BME280;36921;49.006;9.292;2023-02-24T05:36:17;98103.06;;;7.17;100.00
50933;BME280;36921;49.006;9.292;2023-02-24T05:38:49;98163.28;;;7.51;100.00
50933;BME280;36921;49.006;9.292;2023-02-24T05:41:19;98152.91;;;7.48;100.00
50933;BME280;36921;49.006;9.292;2023-02-24T05:43:51;98151.03;;;7.49;100.00
50933;BME280;36921;49.006;9.292;2023-02-24T05:46:47;98165.41;;;7.62;100.00
50933;BME280;36921;49.006;9.292;2023-02-24T05:49:21;98111.06;;;7.39;100.00
50933;BME280;36921;49.006;9.292;2023-02-24T05:51:51;98152.16;;;7.61;100.00
50933;BME280;36921;49.006;9.292;2023-02-24T05:56:48;98138.63;;;7.54;100.00
50933;BME280;36921;49.006;9.292;2023-02-24T05:59:14;98145.72;;;7.62;100.00
50933;BME280;36921;49.006;9.292;2023-02-24T06:01:46;98143.03;;;7.62;100.00
50933;BME280;36921;49.006;9.292;2023-02-24T06:04:33;98140.56;;;7.60;100.00
50933;BME280;36921;49.006;9.292;2023-02-24T06:07:12;98151.31;;;7.60;100.00
50933;BME280;36921;49.006;9.292;2023-02-24T06:09:39;98136.81;;;7.55;100.00
50933;BME280;36921;49.006;9.292;2023-02-24T06:12:07;98134.31;;;7.53;100.00
50933;BME280;36921;49.006;9.292;2023-02-24T06:14:32;98122.31;;;7.56;100.00
50933;BME280;36921;49.006;9.292;2023-02-24T06:16:58;98124.16;;;7.55;100.00
50933;BME280;36921;49.006;9.292;2023-02-24T06:19:26;98132.72;;;7.65;100.00
50933;BME280;36921;49.006;9.292;2023-02-24T06:21:52;98126.69;;;7.70;100.00
50933;BME280;36921;49.006;9.292;2023-02-24T06:24:17;98129.00;;;7.73;100.00
50933;BME280;36921;49.006;9.292;2023-02-24T06:26:44;98129.19;;;7.72;100.00
50933;BME280;36921;49.006;9.292;2023-02-24T06:29:11;98104.94;;;7.65;100.00
50933;BME280;36921;49.006;9.292;2023-02-24T06:31:37;98111.59;;;7.69;100.00
50933;BME280;36921;49.006;9.292;2023-02-24T06:34:03;98108.66;;;7.57;100.00
50933;BME280;36921;49.006;9.292;2023-02-24T06:36:28;98123.81;;;7.72;100.00
50933;BME280;36921;49.006;9.292;2023-02-24T06:38:54;98115.94;;;7.70;100.00
50933;BME280;36921;49.006;9.292;2023-02-24T06:41:20;98118.25;;;7.73;100.00
50933;BME280;36921;49.006;9.292;2023-02-24T06:43:46;98117.84;;;7.76;100.00
50933;BME280;36921;49.006;9.292;2023-02-24T06:46:14;98112.22;;;7.78;100.00
50933;BME280;36921;49.006;9.292;2023-02-24T06:48:40;98114.13;;;7.84;100.00
50933;BME280;36921;49.006;9.292;2023-02-24T06:51:14;98104.38;;;7.83;100.00
50933;BME280;36921;49.006;9.292;2023-02-24T06:53:40;98102.72;;;7.88;100.00
50933;BME280;36921;49.006;9.292;2023-02-24T06:56:10;98108.34;;;7.94;100.00
50933;BME280;36921;49.006;9.292;2023-02-24T06:58:40;98111.66;;;7.96;100.00
50933;BME280;36921;49.006;9.292;2023-02-24T07:01:16;98105.47;;;8.02;100.00
50933;BME280;36921;49.006;9.292;2023-02-24T07:03:43;98101.75;;;8.03;100.00
50933;BME280;36921;49.006;9.292;2023-02-24T07:06:31;98098.84;;;8.04;100.00
50933;BME280;36921;49.006;9.292;2023-02-24T07:09:00;98096.53;;;8.01;100.00
50933;BME280;36921;49.006;9.292;2023-02-24T07:11:27;98095.09;;;8.05;100.00
50933;BME280;36921;49.006;9.292;2023-02-24T07:13:53;98102.16;;;8.06;100.00
50933;BME280;36921;49.006;9.292;2023-02-24T07:16:20;98087.44;;;8.09;100.00
50933;BME280;36921;49.006;9.292;2023-02-24T07:18:52;98093.88;;;8.15;100.00
50933;BME280;36921;49.006;9.292;2023-02-24T07:21:18;98088.09;;;8.18;100.00
50933;BME280;36921;49.006;9.292;2023-02-24T07:23:47;98093.03;;;8.14;100.00
50933;BME280;36921;49.006;9.292;2023-02-24T07:26:19;98079.16;;;8.10;100.00
50933;BME280;36921;49.006;9.292;2023-02-24T07:28:47;98084.34;;;8.05;100.00
50933;BME280;36921;49.006;9.292;2023-02-24T07:31:17;98079.97;;;8.11;100.00
50933;BME280;36921;49.006;9.292;2023-02-24T07:33:44;98071.91;;;8.11;100.00
50933;BME280;36921;49.006;9.292;2023-02-24T07:36:12;98075.22;;;8.13;100.00
50933;BME280;36921;49.006;9.292;2023-02-24T07:38:50;98073.34;;;8.13;100.00
50933;BME280;36921;49.006;9.292;2023-02-24T07:41:21;98057.81;;;8.02;100.00
50933;BME280;36921;49.006;9.292;2023-02-24T07:43:51;98061.31;;;8.03;100.00
50933;BME280;36921;49.006;9.292;2023-02-24T07:46:20;98060.09;;;8.05;100.00
50933;BME280;36921;49.006;9.292;2023-02-24T07:48:46;98067.31;;;7.98;100.00
50933;BME280;36921;49.006;9.292;2023-02-24T07:51:14;98061.94;;;7.98;100.00
50933;BME280;36921;49.006;9.292;2023-02-24T07:53:41;98059.84;;;7.87;100.00
50933;BME280;36921;49.006;9.292;2023-02-24T07:56:07;98062.75;;;7.85;100.00
50933;BME280;36921;49.006;9.292;2023-02-24T07:58:39;98055.09;;;7.89;100.00
50933;BME280;36921;49.006;9.292;2023-02-24T08:01:07;98057.34;;;7.79;100.00
50933;BME280;36921;49.006;9.292;2023-02-24T08:03:36;98059.19;;;7.72;100.00
50933;BME280;36921;49.006;9.292;2023-02-24T08:06:06;98064.78;;;7.70;100.00
50933;BME280;36921;49.006;9.292;2023-02-24T08:08:41;98059.81;;;7.74;100.00
50933;BME280;36921;49.006;9.292;2023-02-24T08:11:27;98065.44;;;7.79;100.00
50933;BME280;36921;49.006;9.292;2023-02-24T08:14:03;98055.28;;;7.87;100.00
50933;BME280;36921;49.006;9.292;2023-02-24T08:16:29;98047.84;;;7.96;100.00
50933;BME280;36921;49.006;9.292;2023-02-24T08:19:08;98054.69;;;8.05;100.00
50933;BME280;36921;49.006;9.292;2023-02-24T08:21:41;98047.84;;;8.03;100.00
50933;BME280;36921;49.006;9.292;2023-02-24T08:24:14;98046.59;;;7.99;100.00
50933;BME280;36921;49.006;9.292;2023-02-24T08:26:49;98046.81;;;8.04;100.00
50933;BME280;36921;49.006;9.292;2023-02-24T08:29:38;98048.06;;;8.08;100.00
50933;BME280;36921;49.006;9.292;2023-02-24T08:32:38;98043.72;;;8.00;100.00
50933;BME280;36921;49.006;9.292;2023-02-24T08:37:40;98041.63;;;8.09;100.00
50933;BME280;36921;49.006;9.292;2023-02-24T08:40:17;98033.75;;;8.01;100.00
50933;BME280;36921;49.006;9.292;2023-02-24T08:43:12;98038.50;;;7.99;100.00
50933;BME280;36921;49.006;9.292;2023-02-24T08:45:53;98036.25;;;7.89;100.00
50933;BME280;36921;49.006;9.292;2023-02-24T08:48:25;98034.38;;;7.96;100.00
50933;BME280;36921;49.006;9.292;2023-02-24T08:50:53;98035.22;;;7.97;100.00
50933;BME280;36921;49.006;9.292;2023-02-24T08:53:19;98027.34;;;8.22;100.00
50933;BME280;36921;49.006;9.292;2023-02-24T08:55:45;98023.00;;;8.27;100.00
50933;BME280;36921;49.006;9.292;2023-02-24T08:58:16;98021.97;;;8.28;100.00
50933;BME280;36921;49.006;9.292;2023-02-24T09:00:45;98020.75;;;8.44;100.00
50933;BME280;36921;49.006;9.292;2023-02-24T09:03:18;98013.28;;;8.46;100.00
50933;BME280;36921;49.006;9.292;2023-02-24T09:06:00;98008.91;;;8.52;100.00
50933;BME280;36921;49.006;9.292;2023-02-24T09:08:30;98006.41;;;8.50;100.00
50933;BME280;36921;49.006;9.292;2023-02-24T09:11:04;98010.38;;;8.48;100.00
50933;BME280;36921;49.006;9.292;2023-02-24T09:13:37;98006.22;;;8.52;100.00
50933;BME280;36921;49.006;9.292;2023-02-24T09:16:17;97998.94;;;8.46;100.00
50933;BME280;36921;49.006;9.292;2023-02-24T09:18:42;98000.63;;;8.40;100.00
50933;BME280;36921;49.006;9.292;2023-02-24T09:21:12;97997.09;;;8.40;100.00
50933;BME280;36921;49.006;9.292;2023-02-24T09:23:59;97991.06;;;8.38;100.00
50933;BME280;36921;49.006;9.292;2023-02-24T09:26:33;97987.34;;;8.45;100.00
50933;BME280;36921;49.006;9.292;2023-02-24T09:29:08;97967.25;;;8.28;100.00
50933;BME280;36921;49.006;9.292;2023-02-24T09:31:54;97982.81;;;8.39;100.00
50933;BME280;36921;49.006;9.292;2023-02-24T09:34:54;97992.72;;;8.32;100.00
50933;BME280;36921;49.006;9.292;2023-02-24T09:40:31;97979.88;;;8.01;100.00
50933;BME280;36921;49.006;9.292;2023-02-24T09:43:22;97982.38;;;8.16;100.00
50933;BME280;36921;49.006;9.292;2023-02-24T09:45:57;97987.75;;;8.22;100.00
50933;BME280;36921;49.006;9.292;2023-02-24T09:49:06;97984.25;;;8.28;100.00
50933;BME280;36921;49.006;9.292;2023-02-24T09:51:36;97969.09;;;8.47;100.00
50933;BME280;36921;49.006;9.292;2023-02-24T09:54:15;97972.84;;;8.46;100.00
50933;BME280;36921;49.006;9.292;2023-02-24T09:56:51;97959.97;;;8.35;100.00
50933;BME280;36921;49.006;9.292;2023-02-24T10:02:29;97967.19;;;8.61;100.00
50933;BME280;36921;49.006;9.292;2023-02-24T10:05:15;97955.78;;;8.66;100.00
50933;BME280;36921;49.006;9.292;2023-02-24T10:07:44;97953.47;;;8.76;100.00
50933;BME280;36921;49.006;9.292;2023-02-24T10:10:24;97960.78;;;8.62;100.00
50933;BME280;36921;49.006;9.292;2023-02-24T10:13:15;97946.41;;;8.75;100.00
50933;BME280;36921;49.006;9.292;2023-02-24T10:15:54;97925.41;;;8.90;100.00
50933;BME280;36921;49.006;9.292;2023-02-24T10:18:31;97950.41;;;9.17;100.00
50933;BME280;36921;49.006;9.292;2023-02-24T10:21:16;97946.03;;;9.16;100.00
50933;BME280;36921;49.006;9.292;2023-02-24T10:24:03;97953.06;;;9.24;100.00
50933;BME280;36921;49.006;9.292;2023-02-24T10:26:37;97931.91;;;9.21;100.00
50933;BME280;36921;49.006;9.292;2023-02-24T10:32:22;97937.13;;;9.16;100.00
50933;BME280;36921;49.006;9.292;2023-02-24T10:34:58;97937.28;;;9.21;100.00
50933;BME280;36921;49.006;9.292;2023-02-24T10:37:24;97933.97;;;9.19;100.00
50933;BME280;36921;49.006;9.292;2023-02-24T10:39:56;97933.72;;;9.27;100.00
50933;BME280;36921;49.006;9.292;2023-02-24T10:42:30;97931.88;;;9.28;100.00
50933;BME280;36921;49.006;9.292;2023-02-24T10:45:24;97928.75;;;9.31;100.00
50933;BME280;36921;49.006;9.292;2023-02-24T10:47:54;97928.75;;;9.24;100.00
50933;BME280;36921;49.006;9.292;2023-02-24T10:50:26;97915.75;;;9.14;100.00
50933;BME280;36921;49.006;9.292;2023-02-24T10:52:54;97910.66;;;9.31;100.00
50933;BME280;36921;49.006;9.292;2023-02-24T10:55:30;97913.06;;;9.46;100.00
50933;BME280;36921;49.006;9.292;2023-02-24T10:58:06;97909.59;;;9.64;100.00
50933;BME280;36921;49.006;9.292;2023-02-24T11:00:39;97893.72;;;9.74;100.00
50933;BME280;36921;49.006;9.292;2023-02-24T11:03:23;97898.09;;;9.75;100.00
50933;BME280;36921;49.006;9.292;2023-02-24T11:06:25;97895.28;;;9.88;100.00
50933;BME280;36921;49.006;9.292;2023-02-24T11:12:20;97869.31;;;9.87;100.00
50933;BME280;36921;49.006;9.292;2023-02-24T11:15:16;97880.91;;;10.13;100.00
50933;BME280;36921;49.006;9.292;2023-02-24T11:18:24;97863.59;;;10.21;100.00
50933;BME280;36921;49.006;9.292;2023-02-24T11:21:04;97867.25;;;10.26;100.00
50933;BME280;36921;49.006;9.292;2023-02-24T11:26:22;97858.88;;;10.35;100.00
50933;BME280;36921;49.006;9.292;2023-02-24T11:32:07;97835.31;;;10.42;100.00
50933;BME280;36921;49.006;9.292;2023-02-24T11:37:33;97823.41;;;10.80;100.00
50933;BME280;36921;49.006;9.292;2023-02-24T11:40:16;97815.44;;;10.85;100.00
50933;BME280;36921;49.006;9.292;2023-02-24T11:42:52;97814.44;;;10.79;100.00
50933;BME280;36921;49.006;9.292;2023-02-24T11:45:31;97806.56;;;10.78;100.00
50933;BME280;36921;49.006;9.292;2023-02-24T11:50:50;97806.00;;;10.57;100.00
50933;BME280;36921;49.006;9.292;2023-02-24T11:53:32;97796.69;;;10.35;100.00
50933;BME280;36921;49.006;9.292;2023-02-24T11:56:06;97794.28;;;10.26;100.00
50933;BME280;36921;49.006;9.292;2023-02-24T11:58:44;97780.63;;;10.40;100.00
50933;BME280;36921;49.006;9.292;2023-02-24T12:01:19;97777.50;;;10.43;100.00
50933;BME280;36921;49.006;9.292;2023-02-24T12:06:20;97749.47;;;11.09;100.00
50933;BME280;36921;49.006;9.292;2023-02-24T12:08:50;97754.09;;;11.44;100.00
50933;BME280;36921;49.006;9.292;2023-02-24T12:11:25;97747.75;;;11.74;100.00
50933;BME280;36921;49.006;9.292;2023-02-24T12:14:26;97710.59;;;12.67;100.00
50933;BME280;36921;49.006;9.292;2023-02-24T12:17:07;97703.88;;;15.50;100.00
50933;BME280;36921;49.006;9.292;2023-02-24T12:19:47;97693.78;;;18.59;94.97
50933;BME280;36921;49.006;9.292;2023-02-24T12:22:15;97708.00;;;19.45;84.27
50933;BME280;36921;49.006;9.292;2023-02-24T12:24:46;97715.72;;;17.64;100.00
50933;BME280;36921;49.006;9.292;2023-02-24T12:27:39;97711.09;;;16.88;100.00
50933;BME280;36921;49.006;9.292;2023-02-24T12:33:09;97707.59;;;15.71;100.00
50933;BME280;36921;49.006;9.292;2023-02-24T12:35:46;97699.66;;;16.17;100.00
50933;BME280;36921;49.006;9.292;2023-02-24T12:38:34;97699.00;;;16.00;100.00
50933;BME280;36921;49.006;9.292;2023-02-24T12:41:29;97696.72;;;15.39;100.00
50933;BME280;36921;49.006;9.292;2023-02-24T12:44:25;97681.81;;;14.55;100.00
50933;BME280;36921;49.006;9.292;2023-02-24T12:47:03;97669.38;;;13.93;100.00
50933;BME280;36921;49.006;9.292;2023-02-24T12:49:45;97675.16;;;13.97;100.00
50933;BME280;36921;49.006;9.292;2023-02-24T12:55:06;97663.38;;;13.69;100.00
50933;BME280;36921;49.006;9.292;2023-02-24T12:57:43;97641.53;;;12.75;100.00
50933;BME280;36921;49.006;9.292;2023-02-24T13:03:25;97660.97;;;12.09;100.00
50933;BME280;36921;49.006;9.292;2023-02-24T13:06:05;97659.75;;;12.45;100.00
50933;BME280;36921;49.006;9.292;2023-02-24T13:08:56;97654.66;;;12.20;100.00
50933;BME280;36921;49.006;9.292;2023-02-24T13:11:41;97650.25;;;12.31;100.00
50933;BME280;36921;49.006;9.292;2023-02-24T13:14:18;97643.69;;;12.27;100.00
50933;BME280;36921;49.006;9.292;2023-02-24T13:16:44;97631.13;;;12.21;100.00
50933;BME280;36921;49.006;9.292;2023-02-24T13:22:06;97631.38;;;12.07;100.00
50933;BME280;36921;49.006;9.292;2023-02-24T13:24:54;97598.75;;;12.02;100.00
50933;BME280;36921;49.006;9.292;2023-02-24T13:27:29;97637.25;;;11.88;100.00
50933;BME280;36921;49.006;9.292;2023-02-24T13:29:58;97630.56;;;11.55;100.00
50933;BME280;36921;49.006;9.292;2023-02-24T13:32:38;97632.94;;;11.51;100.00
50933;BME280;36921;49.006;9.292;2023-02-24T13:37:50;97612.78;;;11.47;100.00
50933;BME280;36921;49.006;9.292;2023-02-24T13:40:23;97615.44;;;11.71;100.00
50933;BME280;36921;49.006;9.292;2023-02-24T13:45:24;97600.81;;;11.31;100.00
50933;BME280;36921;49.006;9.292;2023-02-24T13:50:56;97591.34;;;10.40;100.00
50933;BME280;36921;49.006;9.292;2023-02-24T13:53:36;97607.56;;;10.40;100.00
50933;BME280;36921;49.006;9.292;2023-02-24T13:56:09;97593.84;;;10.53;100.00
50933;BME280;36921;49.006;9.292;2023-02-24T14:01:17;97589.00;;;10.31;100.00
50933;BME280;36921;49.006;9.292;2023-02-24T14:06:49;97575.25;;;10.03;100.00
50933;BME280;36921;49.006;9.292;2023-02-24T14:09:22;97570.41;;;9.93;100.00
50933;BME280;36921;49.006;9.292;2023-02-24T14:11:51;97556.97;;;9.86;100.00
50933;BME280;36921;49.006;9.292;2023-02-24T14:14:17;97566.19;;;9.97;100.00
50933;BME280;36921;49.006;9.292;2023-02-24T14:16:43;97572.03;;;9.82;100.00
50933;BME280;36921;49.006;9.292;2023-02-24T14:19:14;97554.22;;;9.93;100.00
50933;BME280;36921;49.006;9.292;2023-02-24T14:21:47;97561.16;;;10.01;100.00
50933;BME280;36921;49.006;9.292;2023-02-24T14:24:13;97554.47;;;10.03;100.00
50933;BME280;36921;49.006;9.292;2023-02-24T14:26:48;97551.13;;;9.90;100.00
50933;BME280;36921;49.006;9.292;2023-02-24T14:29:19;97562.38;;;9.86;100.00
50933;BME280;36921;49.006;9.292;2023-02-24T14:31:47;97559.81;;;9.92;100.00
50933;BME280;36921;49.006;9.292;2023-02-24T14:34:18;97559.19;;;9.78;100.00
50933;BME280;36921;49.006;9.292;2023-02-24T14:36:44;97545.75;;;9.71;100.00
50933;BME280;36921;49.006;9.292;2023-02-24T14:39:22;97555.41;;;9.67;100.00
50933;BME280;36921;49.006;9.292;2023-02-24T14:41:48;97547.88;;;9.69;100.00
50933;BME280;36921;49.006;9.292;2023-02-24T14:44:23;97543.25;;;9.58;100.00
50933;BME280;36921;49.006;9.292;2023-02-24T14:46:55;97528.97;;;9.39;100.00
50933;BME280;36921;49.006;9.292;2023-02-24T14:49:30;97546.72;;;9.47;100.00
50933;BME280;36921;49.006;9.292;2023-02-24T14:52:04;97541.19;;;9.41;100.00
50933;BME280;36921;49.006;9.292;2023-02-24T14:54:42;97536.69;;;9.35;100.00
50933;BME280;36921;49.006;9.292;2023-02-24T14:57:14;97535.69;;;9.30;100.00
50933;BME280;36921;49.006;9.292;2023-02-24T14:59:45;97488.41;;;9.09;100.00
50933;BME280;36921;49.006;9.292;2023-02-24T15:02:18;97517.41;;;9.32;100.00